Bogue, Kansas
Current Conditions -  °F | °C
As of 9:53 AM on Monday 22 Dec 2014 (Local Time) from KHLC Reporting Station
Broken Clouds Broken Clouds  
Wind Chill: 38°   Ceiling: 12000
Heat Index: 45°   Visibility: 10mi
Dew Point: 32°   Wind: 16mph
Humidity: 60%   Direction: 310°NW
Pressure: 29.64"   Gusts: 23mph
Location:  39.36°N, 99.69°W
Report Text: KHLC 221553Z AUTO 31014G20KT 10SM SCT050 SCT075 BKN120 07/00 A2964 RMK AO2 SLP041 T00720000
Loading
Personal Weather Stations






























Interactive Weather Map New forecast layout! Learn more

10-Day Weather Forecast

Advertisements
Track Severe Weather on mobile